Pagrindinis puslapis
METAR-TAF:

METAR-TAF

Oro uostai :

Estešundas-Frösön, Švedija

platuma: 63-11N, ilguma: 014-30E, Aukštis: 376 m

Dabartinis oras

Ataskaita buvo paskelbta 39 minutes, ne 02:20 UTC
Vėjas 7 kt iš Vakarų
Temperatūra 9°C
Drėgmė 87%
Slėgis 1022 hPa
Matomumas 10 km arba daugiau

METAR: ESNZ 240220Z AUTO 28007KT 9999 NCD 09/07 Q1022

Laikas: 04:59 (02:59 UTC)

Prognozė

Ataskaita buvo paskelbta 9 valandos ir 29 minutes, ne 17:30 UTC
Prognozė galioja nuo 23 metu 18 UTC su 23 metu 22 UTC
Vėjas 8 kt iš Vakarų/Šiaurės Vakarų
Matomumas 10 km arba daugiau
nėra debesų žemiau 1500 m ir nėra kamuolinių lietaus debesų

TAF: ESNZ 231730Z 2318/2322 30008KT CAVOK

Orai ataskaitas ir orų prognozės (METAR, TAF).

turimą stotys yra geltonos ir raudonos taškus žemėlapyje.

Perkelti pele per norėdami pamatyti stoties vardą.

Tada spustelėkite, norėdami matyti oro stebėjimo ir prognozės.

Norėdami pakeisti žemėlapį: spustelėkite ant žalios mygtukų su juodo kryžiaus žemyn,; žalią mygtuką su brūkšneliu, jei norite nutolinti; arba žalių rodyklių gretimoms žemėlapius.


METAR-TAF: